Time,TemperatureF,DewpointF,PressureIn,WindDirection,WindDirectionDegrees,WindSpeedMPH,WindSpeedGustMPH,Humidity,HourlyPrecipIn,Conditions,Clouds,dailyrainin,SolarRadiationWatts/m^2,SoftwareType,DateUTC
2013-03-06 00:11:00,33.0,10.0,-100.00,SSW,202,1.0,9.0,38,0.00,,,0.00,0.000000,,2013-03-06 07:11:00,
2013-03-06 00:22:00,33.0,10.0,-100.00,SSW,202,1.0,9.0,38,0.00,,,0.00,0.000000,,2013-03-06 07:22:00,
2013-03-06 00:31:00,33.0,10.0,-100.00,SSW,202,1.0,9.0,38,0.00,,,0.00,0.000000,,2013-03-06 07:31:00,
2013-03-06 00:42:00,33.0,10.0,-100.00,SSW,202,1.0,9.0,38,0.00,,,0.00,0.000000,,2013-03-06 07:42:00,
2013-03-06 01:11:00,33.0,10.0,-100.00,West,261,1.0,7.0,37,0.00,,,0.00,0.000000,,2013-03-06 08:11:00,
2013-03-06 01:21:00,33.0,10.0,-100.00,West,261,1.0,7.0,37,0.00,,,0.00,0.000000,,2013-03-06 08:21:00,
2013-03-06 01:31:00,33.0,10.0,-100.00,West,261,1.0,7.0,37,0.00,,,0.00,0.000000,,2013-03-06 08:31:00,
2013-03-06 01:42:00,33.0,10.0,-100.00,West,261,1.0,7.0,37,0.00,,,0.00,0.000000,,2013-03-06 08:42:00,
2013-03-06 02:12:00,35.0,9.0,-100.00,WNW,286,3.0,7.0,34,0.00,,,-99.99,0.000000,,2013-03-06 09:12:00,
2013-03-06 02:21:00,35.0,9.0,-100.00,WNW,286,3.0,7.0,34,0.00,,,-99.99,0.000000,,2013-03-06 09:21:00,
2013-03-06 02:31:00,35.0,9.0,-100.00,WNW,286,3.0,7.0,34,0.00,,,-99.99,0.000000,,2013-03-06 09:31:00,
2013-03-06 02:41:00,35.0,9.0,-100.00,WNW,286,3.0,7.0,34,0.00,,,-99.99,0.000000,,2013-03-06 09:41:00,
2013-03-06 03:11:00,41.0,10.0,-100.00,SSW,200,7.0,15.0,27,0.00,,,0.00,0.000000,,2013-03-06 10:11:00,
2013-03-06 03:21:00,41.0,10.0,-100.00,SSW,200,7.0,15.0,27,0.00,,,0.00,0.000000,,2013-03-06 10:21:00,
2013-03-06 04:11:00,40.0,10.0,-100.00,SW,220,3.0,15.0,28,-99.99,,,0.00,0.000000,,2013-03-06 11:11:00,
2013-03-06 04:22:00,40.0,10.0,-100.00,SW,220,3.0,15.0,28,-99.99,,,0.00,0.000000,,2013-03-06 11:22:00,
2013-03-06 05:11:00,39.0,12.0,-100.00,SSE,162,6.0,12.0,32,-99.99,,,0.00,0.000000,,2013-03-06 12:11:00,
2013-03-06 05:21:00,39.0,12.0,-100.00,SSE,162,6.0,12.0,32,-99.99,,,0.00,0.000000,,2013-03-06 12:21:00,
2013-03-06 05:32:00,39.0,12.0,-100.00,SSE,162,6.0,12.0,32,-99.99,,,0.00,0.000000,,2013-03-06 12:32:00,
2013-03-06 05:42:00,39.0,12.0,-100.00,SSE,162,6.0,12.0,32,-99.99,,,0.00,0.000000,,2013-03-06 12:42:00,
2013-03-06 06:11:00,38.0,11.0,-100.00,SSE,168,7.0,15.0,33,0.00,,,0.00,0.000000,,2013-03-06 13:11:00,
2013-03-06 06:21:00,38.0,11.0,-100.00,SSE,168,7.0,15.0,33,0.00,,,0.00,0.000000,,2013-03-06 13:21:00,
2013-03-06 06:32:00,38.0,11.0,-100.00,SSE,168,7.0,15.0,33,0.00,,,0.00,0.000000,,2013-03-06 13:32:00,
2013-03-06 06:42:00,38.0,11.0,-100.00,SSE,168,7.0,15.0,33,0.00,,,0.00,0.000000,,2013-03-06 13:42:00,
2013-03-06 07:11:00,41.0,13.0,-100.00,South,191,9.0,18.0,31,0.00,,,0.00,1.000000,,2013-03-06 14:11:00,
2013-03-06 07:21:00,41.0,13.0,-100.00,South,191,9.0,18.0,31,0.00,,,0.00,1.000000,,2013-03-06 14:21:00,
2013-03-06 08:11:00,45.0,15.0,-100.00,SSW,195,10.0,26.0,29,-99.99,,,0.00,82.000000,,2013-03-06 15:11:00,
2013-03-06 08:21:00,45.0,15.0,-100.00,SSW,195,10.0,26.0,29,-99.99,,,0.00,82.000000,,2013-03-06 15:21:00,
2013-03-06 08:32:00,45.0,15.0,-100.00,SSW,195,10.0,26.0,29,-99.99,,,0.00,82.000000,,2013-03-06 15:32:00,
2013-03-06 08:41:00,45.0,15.0,-100.00,SSW,195,10.0,26.0,29,-99.99,,,0.00,82.000000,,2013-03-06 15:41:00,
2013-03-06 09:11:00,48.0,16.0,-100.00,SSW,198,13.0,22.0,28,0.00,,,0.00,292.000000,,2013-03-06 16:11:00,
2013-03-06 09:21:00,48.0,16.0,-100.00,SSW,198,13.0,22.0,28,0.00,,,0.00,292.000000,,2013-03-06 16:21:00,
2013-03-06 09:32:00,48.0,16.0,-100.00,SSW,198,13.0,22.0,28,0.00,,,0.00,292.000000,,2013-03-06 16:32:00,
2013-03-06 09:41:00,48.0,16.0,-100.00,SSW,198,13.0,22.0,28,0.00,,,0.00,292.000000,,2013-03-06 16:41:00,
2013-03-06 10:11:00,51.0,19.0,-100.00,South,189,7.0,26.0,28,0.00,,,0.00,502.000000,,2013-03-06 17:11:00,
2013-03-06 10:21:00,51.0,19.0,-100.00,South,189,7.0,26.0,28,0.00,,,0.00,502.000000,,2013-03-06 17:21:00,
2013-03-06 10:32:00,51.0,19.0,-100.00,South,189,7.0,26.0,28,0.00,,,0.00,502.000000,,2013-03-06 17:32:00,
2013-03-06 10:41:00,51.0,19.0,-100.00,South,189,7.0,26.0,28,0.00,,,0.00,502.000000,,2013-03-06 17:41:00,
2013-03-06 11:28:00,51.0,20.0,-100.00,South,190,10.0,22.0,29,0.00,,,0.00,532.000000,,2013-03-06 18:28:00,
2013-03-06 11:42:00,51.0,20.0,-100.00,South,190,10.0,22.0,29,0.00,,,0.00,532.000000,,2013-03-06 18:42:00,
2013-03-06 12:02:00,52.0,22.0,-100.00,South,182,12.0,24.0,30,0.00,,,0.00,733.000000,,2013-03-06 19:02:00,
2013-03-06 12:11:00,52.0,22.0,-100.00,South,182,12.0,24.0,30,0.00,,,0.00,733.000000,,2013-03-06 19:11:00,
2013-03-06 12:21:00,52.0,22.0,-100.00,South,182,12.0,24.0,30,0.00,,,0.00,733.000000,,2013-03-06 19:21:00,
2013-03-06 12:32:00,52.0,22.0,-100.00,South,182,12.0,24.0,30,0.00,,,0.00,733.000000,,2013-03-06 19:32:00,
2013-03-06 12:42:00,52.0,22.0,-100.00,South,182,12.0,24.0,30,0.00,,,0.00,733.000000,,2013-03-06 19:42:00,
2013-03-06 13:11:00,53.0,21.0,-100.00,South,187,13.0,29.0,28,0.00,,,0.00,792.000000,,2013-03-06 20:11:00,
2013-03-06 13:22:00,53.0,21.0,-100.00,South,187,13.0,29.0,28,0.00,,,0.00,792.000000,,2013-03-06 20:22:00,
2013-03-06 13:32:00,53.0,21.0,-100.00,South,187,13.0,29.0,28,0.00,,,0.00,792.000000,,2013-03-06 20:32:00,
2013-03-06 13:42:00,53.0,21.0,-100.00,South,187,13.0,29.0,28,0.00,,,0.00,792.000000,,2013-03-06 20:42:00,
2013-03-06 14:11:00,51.0,21.0,-100.00,WNW,289,8.0,21.0,31,0.00,,,0.00,824.000000,,2013-03-06 21:11:00,
2013-03-06 14:22:00,51.0,21.0,-100.00,WNW,289,8.0,21.0,31,0.00,,,0.00,824.000000,,2013-03-06 21:22:00,
2013-03-06 14:32:00,51.0,21.0,-100.00,WNW,289,8.0,21.0,31,0.00,,,0.00,824.000000,,2013-03-06 21:32:00,
2013-03-06 14:42:00,51.0,21.0,-100.00,WNW,289,8.0,21.0,31,0.00,,,0.00,824.000000,,2013-03-06 21:42:00,
2013-03-06 15:11:00,54.0,19.0,-100.00,SW,233,10.0,19.0,25,0.00,,,-99.99,747.000000,,2013-03-06 22:11:00,
2013-03-06 15:21:00,54.0,19.0,-100.00,SW,233,10.0,19.0,25,0.00,,,-99.99,747.000000,,2013-03-06 22:21:00,
2013-03-06 15:32:00,54.0,19.0,-100.00,SW,233,10.0,19.0,25,0.00,,,-99.99,747.000000,,2013-03-06 22:32:00,
2013-03-06 15:41:00,54.0,19.0,-100.00,SW,233,10.0,19.0,25,0.00,,,-99.99,747.000000,,2013-03-06 22:41:00,
2013-03-06 16:11:00,55.0,19.0,-100.00,WSW,245,7.0,19.0,24,0.00,,,0.00,598.000000,,2013-03-06 23:11:00,
2013-03-06 16:21:00,55.0,19.0,-100.00,WSW,245,7.0,19.0,24,0.00,,,0.00,598.000000,,2013-03-06 23:21:00,
2013-03-06 16:31:00,55.0,19.0,-100.00,WSW,245,7.0,19.0,24,0.00,,,0.00,598.000000,,2013-03-06 23:31:00,
2013-03-06 16:41:00,55.0,19.0,-100.00,WSW,245,7.0,19.0,24,0.00,,,0.00,598.000000,,2013-03-06 23:41:00,
2013-03-06 17:11:00,54.0,17.0,-100.00,WSW,247,8.0,19.0,23,0.00,,,0.00,398.000000,,2013-03-07 00:11:00,
2013-03-06 17:21:00,54.0,17.0,-100.00,WSW,247,8.0,19.0,23,0.00,,,0.00,398.000000,,2013-03-07 00:21:00,
2013-03-06 17:32:00,54.0,17.0,-100.00,WSW,247,8.0,19.0,23,0.00,,,0.00,398.000000,,2013-03-07 00:32:00,
2013-03-06 17:41:00,54.0,17.0,-100.00,WSW,247,8.0,19.0,23,0.00,,,0.00,398.000000,,2013-03-07 00:41:00,
2013-03-06 18:11:00,48.0,16.0,-100.00,SW,228,4.0,17.0,28,0.00,,,0.00,86.000000,,2013-03-07 01:11:00,
2013-03-06 18:21:00,48.0,16.0,-100.00,SW,228,4.0,17.0,28,0.00,,,0.00,86.000000,,2013-03-07 01:21:00,
2013-03-06 18:31:00,48.0,16.0,-100.00,SW,228,4.0,17.0,28,0.00,,,0.00,86.000000,,2013-03-07 01:31:00,
2013-03-06 18:41:00,48.0,16.0,-100.00,SW,228,4.0,17.0,28,0.00,,,0.00,86.000000,,2013-03-07 01:41:00,
2013-03-06 19:11:00,46.0,16.0,-100.00,SW,225,6.0,15.0,30,0.00,,,0.00,6.000000,,2013-03-07 02:11:00,
2013-03-06 19:21:00,46.0,16.0,-100.00,SW,225,6.0,15.0,30,0.00,,,0.00,6.000000,,2013-03-07 02:21:00,
2013-03-06 19:31:00,46.0,16.0,-100.00,SW,225,6.0,15.0,30,0.00,,,0.00,6.000000,,2013-03-07 02:31:00,
2013-03-06 19:41:00,46.0,16.0,-100.00,SW,225,6.0,15.0,30,0.00,,,0.00,6.000000,,2013-03-07 02:41:00,
2013-03-06 20:11:00,46.0,16.0,-100.00,SSW,213,8.0,19.0,29,0.00,,,0.00,0.000000,,2013-03-07 03:11:00,
2013-03-06 20:21:00,46.0,16.0,-100.00,SSW,213,8.0,19.0,29,0.00,,,0.00,0.000000,,2013-03-07 03:21:00,
2013-03-06 20:31:00,46.0,16.0,-100.00,SSW,213,8.0,19.0,29,0.00,,,0.00,0.000000,,2013-03-07 03:31:00,
2013-03-06 20:41:00,46.0,16.0,-100.00,SSW,213,8.0,19.0,29,0.00,,,0.00,0.000000,,2013-03-07 03:41:00,
2013-03-06 21:11:00,45.0,15.0,-100.00,SSW,202,7.0,15.0,30,0.00,,,0.00,0.000000,,2013-03-07 04:11:00,
2013-03-06 21:21:00,45.0,15.0,-100.00,SSW,202,7.0,15.0,30,0.00,,,0.00,0.000000,,2013-03-07 04:21:00,
2013-03-06 21:31:00,45.0,15.0,-100.00,SSW,202,7.0,15.0,30,0.00,,,0.00,0.000000,,2013-03-07 04:31:00,
2013-03-06 21:41:00,45.0,15.0,-100.00,SSW,202,7.0,15.0,30,0.00,,,0.00,0.000000,,2013-03-07 04:41:00,
2013-03-06 22:12:00,46.0,16.0,-100.00,SSW,208,7.0,13.0,30,0.00,,,0.00,0.000000,,2013-03-07 05:12:00,
2013-03-06 22:22:00,46.0,16.0,-100.00,SSW,208,7.0,13.0,30,0.00,,,0.00,0.000000,,2013-03-07 05:22:00,
2013-03-06 22:32:00,46.0,16.0,-100.00,SSW,208,7.0,13.0,30,0.00,,,0.00,0.000000,,2013-03-07 05:32:00,
2013-03-06 22:41:00,46.0,16.0,-100.00,SSW,208,7.0,13.0,30,0.00,,,0.00,0.000000,,2013-03-07 05:41:00,
2013-03-06 23:11:00,46.0,16.0,-100.00,SSW,202,8.0,19.0,30,0.00,,,0.00,0.000000,,2013-03-07 06:11:00,
2013-03-06 23:21:00,46.0,16.0,-100.00,SSW,202,8.0,19.0,30,0.00,,,0.00,0.000000,,2013-03-07 06:21:00,
2013-03-06 23:31:00,46.0,16.0,-100.00,SSW,202,8.0,19.0,30,0.00,,,0.00,0.000000,,2013-03-07 06:31:00,
2013-03-06 23:41:00,46.0,16.0,-100.00,SSW,202,8.0,19.0,30,0.00,,,0.00,0.000000,,2013-03-07 06:41:00,